This is the latest recevied weather packets stored in our database for station/object VK2BLR. If no packets are shown the sender has not sent any weather packets the latest 10 day(s).
| Time | Temp. | Humidity | Pressure | Rain* | Wind** | Luminosity | Snow |
|---|---|---|---|---|---|---|---|
| 1777820891 | 17.22° C | 92% | 1016.3 hPa | 4.32 mm | - | - | - |
| 1777819993 | 17.22° C | 91% | 1016.4 hPa | 3.56 mm | - | - | - |
| 1777819092 | 17.22° C | 90% | 1016.7 hPa | 3.3 mm | - | - | - |
| 1777818192 | 17.22° C | 89% | 1016.6 hPa | 2.03 mm | - | - | - |
| 1777817291 | 17.78° C | 85% | 1017.1 hPa | 1.02 mm | - | - | - |
| 1777816393 | 17.78° C | 85% | 1017.2 hPa | 1.02 mm | - | - | - |
| 1777815493 | 17.78° C | 85% | 1017.3 hPa | 0.51 mm | - | - | - |
| 1777814592 | 17.78° C | 85% | 1017.2 hPa | 1.02 mm | - | - | - |
| 1777813691 | 17.78° C | 84% | 1017.5 hPa | 1.02 mm | - | - | - |
| 1777812792 | 17.78° C | 84% | 1017.4 hPa | 0.51 mm | - | - | - |
| 1777811893 | 18.33° C | 83% | 1017.7 hPa | 0.51 mm | - | - | - |
| 1777810992 | 18.33° C | 83% | 1017.6 hPa | 0.25 mm | - | - | - |
| 1777810093 | 18.33° C | 83% | 1017.7 hPa | 0 mm | - | - | - |
| 1777809193 | 18.33° C | 83% | 1017.5 hPa | 0 mm | - | - | - |
| 1777808291 | 18.33° C | 84% | 1017.7 hPa | 0 mm | - | - | - |
| 1777807393 | 18.33° C | 84% | 1017.5 hPa | 0.25 mm | - | - | - |
| 1777806492 | 18.33° C | 83% | 1017.5 hPa | 0.25 mm | - | - | - |
| 1777805592 | 18.33° C | 82% | 1017.3 hPa | 0.25 mm | - | - | - |
| 1777804691 | 18.89° C | 81% | 1017.1 hPa | 0.25 mm | - | - | - |
| 1777803793 | 18.89° C | 78% | 1016.9 hPa | 0 mm | - | - | - |
| 1777802893 | 19.44° C | 73% | 1016.9 hPa | 0 mm | - | - | - |
| 1777801992 | 20.56° C | 67% | 1016.2 hPa | 0 mm | - | - | - |
| 1777801091 | 21.67° C | 52% | 1016.1 hPa | 0 mm | - | - | - |
| 1777800193 | 21.11° C | 53% | 1015.9 hPa | 0 mm | - | - | - |
| 1777799292 | 21.11° C | 53% | 1015.8 hPa | 0 mm | - | - | - |
* Rain latest hour (hover to see other rain measurements)
** Current wind speed in m/s (hover to see current wind gust speed)